createdAt,value
2023-05-01T00:00:04.802Z,28.1
2023-05-01T00:10:03.146Z,28.3
2023-05-01T00:20:03.037Z,28.6
2023-05-01T00:30:02.686Z,29
2023-05-01T00:40:02.618Z,29.3
2023-05-01T00:50:02.237Z,29.5
2023-05-01T01:00:02.964Z,29.7
2023-05-01T01:10:02.587Z,29.9
2023-05-01T01:20:02.515Z,30.3
2023-05-01T01:30:03.416Z,30.4
2023-05-01T01:40:03.303Z,30.6
2023-05-01T01:50:02.953Z,30.7
2023-05-01T02:00:02.942Z,30.9
2023-05-01T02:10:02.698Z,31.2
2023-05-01T02:20:02.584Z,31.2
2023-05-01T02:30:02.467Z,31.1
2023-05-01T02:40:04.501Z,31
2023-05-01T02:50:03.259Z,30.9
2023-05-01T03:00:03.180Z,31.3
2023-05-01T03:10:02.996Z,31.8
2023-05-01T03:20:02.982Z,31.2
2023-05-01T03:30:02.684Z,31.3
2023-05-01T03:40:02.357Z,31.2
2023-05-01T03:50:02.937Z,31.6
2023-05-01T04:00:02.595Z,31.8
2023-05-01T04:10:02.309Z,31.6
2023-05-01T04:20:03.127Z,31.8
2023-05-01T04:30:02.903Z,32
2023-05-01T04:40:02.602Z,31.9
2023-05-01T04:50:02.442Z,31.3
2023-05-01T05:00:03.240Z,31.3
2023-05-01T05:10:03.070Z,31.4
2023-05-01T05:20:02.893Z,31.3
2023-05-01T05:30:02.731Z,31.4
2023-05-01T05:40:02.433Z,31.2
2023-05-01T05:50:03.128Z,31.3
2023-05-01T06:00:02.829Z,31.3
2023-05-01T06:10:02.603Z,31.4
2023-05-01T06:20:02.478Z,31.4
2023-05-01T06:30:03.135Z,31.5
2023-05-01T06:40:02.899Z,31.4
2023-05-01T06:50:04.525Z,31.3
2023-05-01T07:00:03.201Z,31.1
2023-05-01T07:10:02.899Z,31.1
2023-05-01T07:20:02.708Z,31.1
2023-05-01T07:30:02.503Z,31.1
2023-05-01T07:40:03.448Z,31.2
2023-05-01T07:50:03.144Z,31.4
2023-05-01T08:00:03.084Z,31.3
2023-05-01T08:10:03.033Z,31.3
2023-05-01T08:20:03.131Z,31.5
2023-05-01T08:30:02.769Z,31.4
2023-05-01T08:40:02.487Z,31.4
2023-05-01T08:50:03.352Z,31.6
2023-05-01T09:00:03.032Z,32.1
2023-05-01T09:10:02.752Z,32.6
2023-05-01T09:20:02.550Z,32
2023-05-01T09:30:03.218Z,32.1
2023-05-01T09:40:02.880Z,32.7
2023-05-01T09:50:02.563Z,33.1
2023-05-01T10:00:02.342Z,32.2
2023-05-01T10:10:03.329Z,31.9
2023-05-01T10:20:02.320Z,32
2023-05-01T10:30:03.088Z,31.9
2023-05-01T10:40:02.845Z,31.6
2023-05-01T10:50:02.538Z,31.7
2023-05-01T11:00:02.275Z,31.2
2023-05-01T11:10:02.964Z,30.7
2023-05-01T11:20:02.959Z,30.4
2023-05-01T11:30:02.657Z,30.2
2023-05-01T11:40:02.419Z,30.1
2023-05-01T11:50:03.243Z,29.9
2023-05-01T12:00:03.452Z,29.9
2023-05-01T12:10:03.283Z,29.8
2023-05-01T12:20:03.225Z,29.6
2023-05-01T12:30:03.187Z,29.6
2023-05-01T12:40:02.895Z,29.6
2023-05-01T12:50:02.684Z,29.5
2023-05-01T13:00:02.656Z,29.4
2023-05-01T13:10:02.539Z,29.4
2023-05-01T13:20:02.865Z,29.3
2023-05-01T13:30:02.772Z,28.9
2023-05-01T13:40:02.536Z,28.8
2023-05-01T13:50:03.392Z,28.5
2023-05-01T14:00:02.568Z,28.4
2023-05-01T14:10:02.364Z,28.3
2023-05-01T14:20:03.458Z,28.1
2023-05-01T14:30:03.359Z,28.1
2023-05-01T14:40:03.358Z,27.9
2023-05-01T14:50:03.155Z,28.1
2023-05-01T15:00:02.925Z,27.8
2023-05-01T15:10:02.671Z,27.7
2023-05-01T15:20:02.561Z,27.6
2023-05-01T15:30:02.240Z,27.6
2023-05-01T15:40:03.057Z,27.5
2023-05-01T15:50:02.975Z,27.6
2023-05-01T16:00:02.926Z,27.6
2023-05-01T16:10:02.991Z,27.8
2023-05-01T16:20:03.177Z,27.8
2023-05-01T16:30:03.136Z,27.6
2023-05-01T16:40:03.260Z,27.6
2023-05-01T16:50:03.328Z,27.4
2023-05-01T17:00:03.048Z,27.2
2023-05-01T17:10:03.248Z,27.1
2023-05-01T17:20:02.931Z,27
2023-05-01T17:30:03.489Z,27.1
2023-05-01T17:40:02.699Z,27
2023-05-01T17:50:03.076Z,26.9
2023-05-01T18:00:03.529Z,26.9
2023-05-01T18:10:02.564Z,26.8
2023-05-01T18:20:02.594Z,26.8
2023-05-01T18:30:02.473Z,26.7
2023-05-01T18:40:02.392Z,26.8
2023-05-01T18:50:03.359Z,26.8
2023-05-01T19:00:03.033Z,26.8
2023-05-01T19:10:03.149Z,26.8
2023-05-01T19:20:03.213Z,26.9
2023-05-01T19:30:03.247Z,26.9
2023-05-01T19:40:02.995Z,27.1
2023-05-01T19:50:03.083Z,27.1
2023-05-01T20:00:03.130Z,27
2023-05-01T20:10:02.960Z,26.9
2023-05-01T20:20:02.922Z,27.1
2023-05-01T20:30:02.832Z,27.1
2023-05-01T20:40:02.757Z,27.1
2023-05-01T20:50:02.493Z,27.2
2023-05-01T21:00:03.527Z,27.2
2023-05-01T21:10:02.253Z,27.1
2023-05-01T21:20:03.247Z,27.1
2023-05-01T21:30:03.045Z,27
2023-05-01T21:40:02.930Z,27
2023-05-01T21:50:02.657Z,26.9
2023-05-01T22:00:02.508Z,26.8
2023-05-01T22:10:02.257Z,26.8
2023-05-01T22:20:03.157Z,26.8
2023-05-01T22:30:03.336Z,26.8
2023-05-01T22:40:03.469Z,26.8
2023-05-01T22:50:03.493Z,26.8
2023-05-01T23:00:03.437Z,26.8
2023-05-01T23:10:03.321Z,26.9
2023-05-01T23:20:03.200Z,27
2023-05-01T23:30:03.051Z,27.2
2023-05-01T23:40:03.227Z,27.5
2023-05-01T23:50:03.154Z,27.6
